»·PEaware :: N214TB KSNA-KCRQ

N214TB :: KSNA-KCRQ

FLIGHT INFORMATION

Flight Status: Arrived
Operator: Privately registered:
United States
More flights under this callsign
Pilot: James W. (17580)
Aircraft: CESSNA 172 SKYHAWK
(C172)
More flights by this aircraft type
Origin: KSNA John Wayne-Orange Co
United States
Destination: KCRQ McClellan-Palomar
United States
More flights between these airports :: More routes between these airports
Route: V23 OCN
File this flight plan on PilotEdge
Remarks: I-2 Rating
Altitude:
(Current/Filed)
5,000ft
Speed:
(Current/Filed)
110kts
Departed: 13-Feb-18 10:08 PM
Arrived: 13-Feb-18 10:50 PM
Distance/Time
Traveled:
44nm/0:42
Distance/Time
To Go:
Arrived

Flight Plot

Page will automatically refresh every two minutes.


Map Options




Map Legend


Flown Route
Filed Route
Departure Airport
Arrival Airport
Navaid (VOR, NDB)
Fix

Horizontal Profiles

Position Reports

Time Latitude Longitude Heading Altitude Ground
Speed
13-Feb-18 22:06 33.671842 -117.867158 210 59ft 0kts
13-Feb-18 22:07 33.671842 -117.867158 210 59ft 0kts
13-Feb-18 22:08 33.671842 -117.867158 210 59ft 0kts
13-Feb-18 22:09 33.671842 -117.867158 210 59ft 0kts
13-Feb-18 22:10 33.671842 -117.867158 210 59ft 0kts
13-Feb-18 22:11 33.672581 -117.867799 23 59ft 7kts
13-Feb-18 22:12 33.676981 -117.865284 26 59ft 10kts
13-Feb-18 22:13 33.679979 -117.863643 303 59ft 0kts
13-Feb-18 22:14 33.679979 -117.863643 303 59ft 0kts
13-Feb-18 22:15 33.678115 -117.865370 208 59ft 57kts
13-Feb-18 22:16 33.657419 -117.873992 186 889ft 91kts
13-Feb-18 22:17 33.631450 -117.877629 187 1777ft 95kts
13-Feb-18 22:18 33.605367 -117.881256 187 2672ft 94kts
13-Feb-18 22:19 33.579831 -117.884940 186 3561ft 92kts
13-Feb-18 22:20 33.555070 -117.888973 186 4449ft 88kts
13-Feb-18 22:21 33.529935 -117.891297 149 5023ft 110kts
13-Feb-18 22:22 33.518675 -117.854307 102 5015ft 124kts
13-Feb-18 22:23 33.510610 -117.814241 102 5015ft 123kts
13-Feb-18 22:24 33.502522 -117.774829 101 5016ft 122kts
13-Feb-18 22:25 33.494173 -117.735045 101 5016ft 123kts
13-Feb-18 22:26 33.483094 -117.696842 136 5017ft 125kts
13-Feb-18 22:27 33.456501 -117.669575 136 5015ft 126kts
13-Feb-18 22:28 33.430237 -117.642430 132 5015ft 124kts
13-Feb-18 22:29 33.405668 -117.613801 131 5015ft 123kts
13-Feb-18 22:30 33.381323 -117.585474 131 5015ft 122kts
13-Feb-18 22:31 33.357298 -117.556824 130 5014ft 122kts
13-Feb-18 22:32 33.333343 -117.527897 130 5012ft 122kts
13-Feb-18 22:33 33.309571 -117.499152 130 5011ft 122kts
13-Feb-18 22:34 33.285759 -117.470323 130 5010ft 121kts
13-Feb-18 22:35 33.262093 -117.441646 130 5009ft 121kts
13-Feb-18 22:36 33.238486 -117.412741 121 5005ft 121kts
13-Feb-18 22:37 33.235425 -117.373742 91 5007ft 118kts
13-Feb-18 22:38 33.233837 -117.336438 91 5007ft 119kts
13-Feb-18 22:39 33.232082 -117.296726 91 5007ft 120kts
13-Feb-18 22:40 33.230487 -117.261267 91 5007ft 121kts
13-Feb-18 22:41 33.228942 -117.227851 91 5007ft 121kts
13-Feb-18 22:42 33.226777 -117.181277 91 5007ft 121kts
13-Feb-18 22:43 33.224869 -117.141081 91 5007ft 122kts
13-Feb-18 22:44 33.223277 -117.107511 91 5007ft 122kts
13-Feb-18 22:45 33.221409 -117.066153 91 4696ft 125kts
13-Feb-18 22:46 33.206165 -117.029384 170 3974ft 125kts
13-Feb-18 22:47 33.179609 -117.034199 221 3512ft 116kts
13-Feb-18 22:48 33.163562 -117.059979 260 3507ft 96kts
13-Feb-18 22:49 33.157771 -117.096782 261 3381ft 96kts
13-Feb-18 22:50 33.154220 -117.119053 260 3093ft 75kts
13-Feb-18 22:51 33.150146 -117.144369 260 2638ft 78kts
13-Feb-18 22:52 33.146093 -117.169636 259 2176ft 77kts
13-Feb-18 22:53 33.142123 -117.194248 259 1731ft 76kts
13-Feb-18 22:54 33.138232 -117.218387 259 1300ft 75kts
13-Feb-18 22:55 33.134271 -117.242893 259 867ft 75kts
13-Feb-18 22:56 33.130307 -117.267318 258 434ft 75kts
13-Feb-18 22:57 33.127780 -117.282270 232 297ft 18kts
13-Feb-18 22:58 33.127138 -117.281889 81 297ft 14kts
13-Feb-18 22:59 33.127841 -117.274800 35 297ft 11kts
13-Feb-18 23:00 33.128027 -117.274692 5 297ft 0kts

Navigation Log

Ident Type
1. KSNA Airport
2. OCN Navaid
3. KCRQ Airport